createdAt,value
2023-05-25T00:01:55.909Z,71.08
2023-05-25T00:04:42.040Z,70.50
2023-05-25T00:07:27.353Z,70.51
2023-05-25T00:10:13.761Z,70.89
2023-05-25T00:12:59.142Z,70.58
2023-05-25T00:15:44.519Z,70.94
2023-05-25T00:18:29.615Z,70.93
2023-05-25T00:21:15.632Z,70.63
2023-05-25T00:24:00.896Z,70.65
2023-05-25T00:26:47.401Z,70.69
2023-05-25T00:29:33.448Z,70.53
2023-05-25T00:32:19.871Z,71.14
2023-05-25T00:35:06.280Z,70.91
2023-05-25T00:37:51.627Z,70.75
2023-05-25T00:40:38.560Z,70.21
2023-05-25T00:43:24.012Z,70.27
2023-05-25T00:46:10.460Z,70.27
2023-05-25T00:48:56.249Z,70.01
2023-05-25T00:51:42.228Z,69.66
2023-05-25T00:54:28.002Z,70.30
2023-05-25T00:57:16.691Z,70.86
2023-05-25T01:00:03.247Z,71.18
2023-05-25T01:02:52.583Z,70.95
2023-05-25T01:05:42.698Z,71.41
2023-05-25T01:08:29.866Z,71.30
2023-05-25T01:11:16.765Z,71.23
2023-05-25T01:14:03.388Z,71.20
2023-05-25T01:16:49.769Z,71.45
2023-05-25T01:19:36.296Z,71.35
2023-05-25T01:22:32.493Z,71.84
2023-05-25T01:25:36.805Z,72.04
2023-05-25T01:28:38.672Z,72.20
2023-05-25T01:31:24.764Z,71.74
2023-05-25T01:34:11.111Z,71.76
2023-05-25T01:36:58.512Z,72.25
2023-05-25T01:39:44.103Z,72.10
2023-05-25T01:42:29.316Z,71.88
2023-05-25T01:45:16.699Z,72.33
2023-05-25T01:48:12.954Z,72.43
2023-05-25T01:51:02.518Z,72.53
2023-05-25T01:53:54.110Z,72.96
2023-05-25T01:56:42.659Z,72.96
2023-05-25T01:59:29.505Z,73.05
2023-05-25T02:02:18.280Z,73.09
2023-05-25T02:05:04.796Z,73.24
2023-05-25T02:07:50.349Z,73.54
2023-05-25T02:10:36.133Z,73.50
2023-05-25T02:13:21.577Z,73.45
2023-05-25T02:16:07.957Z,73.71
2023-05-25T02:18:53.326Z,74.22
2023-05-25T02:21:38.696Z,74.09
2023-05-25T02:24:24.892Z,74.59
2023-05-25T02:27:12.776Z,74.18
2023-05-25T02:29:58.531Z,74.59
2023-05-25T02:32:45.411Z,75.09
2023-05-25T02:35:31.066Z,74.99
2023-05-25T02:38:17.361Z,75.71
2023-05-25T02:41:02.772Z,76.16
2023-05-25T02:43:47.968Z,76.61
2023-05-25T02:46:34.132Z,76.96
2023-05-25T02:49:19.622Z,77.19
2023-05-25T02:52:06.101Z,77.27
2023-05-25T02:54:51.498Z,77.70
2023-05-25T02:57:45.832Z,78.00
2023-05-25T03:00:42.752Z,77.96
2023-05-25T03:03:28.568Z,78.42
2023-05-25T03:06:16.030Z,78.28
2023-05-25T03:09:05.101Z,79.11
2023-05-25T03:11:50.927Z,78.87
2023-05-25T03:14:38.942Z,79.80
2023-05-25T03:17:25.359Z,79.85
2023-05-25T03:20:11.743Z,80.25
2023-05-25T03:23:00.961Z,80.62
2023-05-25T03:25:47.145Z,80.62
2023-05-25T03:28:32.865Z,80.62
2023-05-25T03:31:19.022Z,80.91
2023-05-25T03:34:04.742Z,80.82
2023-05-25T03:36:54.345Z,81.01
2023-05-25T03:39:39.894Z,81.03
2023-05-25T03:42:25.506Z,80.68
2023-05-25T03:45:11.452Z,80.75
2023-05-25T03:47:58.351Z,80.93
2023-05-25T03:50:43.929Z,81.04
2023-05-25T03:53:29.635Z,80.86
2023-05-25T03:56:15.597Z,80.93
2023-05-25T03:59:00.949Z,80.86
2023-05-25T04:01:46.449Z,81.13
2023-05-25T04:04:31.594Z,80.48
2023-05-25T04:07:18.858Z,80.45
2023-05-25T04:10:05.001Z,80.31
2023-05-25T04:12:51.926Z,79.70
2023-05-25T04:15:38.250Z,79.68
2023-05-25T04:18:30.920Z,79.80
2023-05-25T04:21:17.876Z,79.49
2023-05-25T04:24:03.514Z,79.27
2023-05-25T04:26:49.751Z,79.45
2023-05-25T04:29:34.957Z,80.07
2023-05-25T04:32:45.797Z,79.49
2023-05-25T04:35:50.640Z,79.38
2023-05-25T04:38:37.381Z,79.19
2023-05-25T04:41:25.759Z,79.20
2023-05-25T04:44:13.850Z,79.03
2023-05-25T04:47:07.290Z,78.89
2023-05-25T04:49:53.227Z,79.08
2023-05-25T04:52:38.543Z,79.01
2023-05-25T04:55:24.175Z,78.71
2023-05-25T04:58:09.494Z,78.93
2023-05-25T05:00:56.428Z,78.76
2023-05-25T05:03:42.030Z,78.39
2023-05-25T05:06:27.476Z,78.11
2023-05-25T05:09:14.166Z,78.06
2023-05-25T05:11:59.733Z,77.34
2023-05-25T05:14:46.297Z,77.12
2023-05-25T05:17:31.644Z,76.71
2023-05-25T05:20:17.343Z,76.07
2023-05-25T05:23:02.910Z,76.48
2023-05-25T05:25:48.262Z,76.02
2023-05-25T05:28:34.071Z,76.83
2023-05-25T05:31:19.760Z,76.46
2023-05-25T05:34:05.876Z,76.63
2023-05-25T05:36:57.838Z,76.61
2023-05-25T05:39:43.474Z,76.16
2023-05-25T05:42:29.014Z,75.73
2023-05-25T05:45:14.892Z,75.15
2023-05-25T05:48:01.257Z,74.67
2023-05-25T05:50:48.446Z,74.54
2023-05-25T05:53:35.364Z,74.15
2023-05-25T05:56:22.069Z,74.18
2023-05-25T05:59:07.225Z,74.00
2023-05-25T06:01:52.774Z,74.09
2023-05-25T06:04:38.938Z,77.12
2023-05-25T06:07:24.281Z,72.69
2023-05-25T06:10:10.151Z,74.45
2023-05-25T06:12:55.496Z,71.11
2023-05-25T06:15:41.065Z,70.87
2023-05-25T06:18:30.634Z,69.34
2023-05-25T06:21:16.390Z,71.14
2023-05-25T06:24:01.739Z,68.77
2023-05-25T06:26:47.259Z,68.13
2023-05-25T06:29:33.137Z,67.93
2023-05-25T06:32:18.436Z,67.81
2023-05-25T06:35:04.782Z,67.53
2023-05-25T06:37:50.349Z,66.70
2023-05-25T06:40:38.083Z,66.02
2023-05-25T06:43:23.557Z,66.50
2023-05-25T06:46:21.541Z,65.70
2023-05-25T06:49:07.008Z,64.61
2023-05-25T06:51:52.481Z,64.07
2023-05-25T06:54:38.214Z,63.85
2023-05-25T06:57:23.777Z,63.26
2023-05-25T07:00:12.082Z,61.91
2023-05-25T07:02:57.677Z,60.87
2023-05-25T07:05:43.292Z,61.04
2023-05-25T07:08:28.847Z,61.35
2023-05-25T07:11:14.293Z,60.91
2023-05-25T07:13:59.357Z,60.34
2023-05-25T07:16:48.211Z,59.84
2023-05-25T07:19:33.790Z,57.52
2023-05-25T07:22:19.527Z,55.98
2023-05-25T07:25:05.182Z,57.52
2023-05-25T07:27:54.976Z,57.61
2023-05-25T07:30:40.889Z,55.07
2023-05-25T07:33:26.511Z,53.38
2023-05-25T07:36:12.459Z,53.43
2023-05-25T07:38:58.274Z,52.93
2023-05-25T07:41:43.467Z,51.75
2023-05-25T07:44:30.005Z,52.47
2023-05-25T07:47:15.186Z,51.80
2023-05-25T07:50:00.217Z,50.60
2023-05-25T07:52:46.359Z,50.55
2023-05-25T07:55:31.588Z,50.83
2023-05-25T07:58:16.872Z,50.25
2023-05-25T08:01:02.377Z,51.07
2023-05-25T08:03:50.050Z,51.59
2023-05-25T08:06:35.867Z,51.90
2023-05-25T08:09:21.450Z,52.41
2023-05-25T08:12:27.341Z,51.54
2023-05-25T08:15:13.394Z,50.16
2023-05-25T08:17:58.940Z,50.09
2023-05-25T08:20:43.989Z,50.47
2023-05-25T08:23:29.410Z,50.17
2023-05-25T08:26:34.114Z,48.65
2023-05-25T08:29:20.170Z,48.92
2023-05-25T08:32:05.465Z,48.19
2023-05-25T08:34:50.944Z,46.91
2023-05-25T08:37:36.559Z,46.10
2023-05-25T08:40:26.749Z,46.27
2023-05-25T08:43:12.417Z,44.64
2023-05-25T08:46:03.861Z,44.68
2023-05-25T08:48:52.024Z,44.29
2023-05-25T08:51:41.847Z,45.11
2023-05-25T08:54:34.109Z,45.31
2023-05-25T08:57:34.595Z,46.11
2023-05-25T09:00:25.494Z,47.31
2023-05-25T09:03:20.112Z,47.53
2023-05-25T09:06:05.850Z,46.87
2023-05-25T09:08:51.078Z,45.28
2023-05-25T09:11:40.408Z,45.54
2023-05-25T09:14:27.608Z,44.45
2023-05-25T09:17:14.673Z,43.26
2023-05-25T09:20:00.374Z,44.02
2023-05-25T09:22:47.375Z,44.03
2023-05-25T09:25:33.729Z,43.13
2023-05-25T09:28:26.894Z,43.93
2023-05-25T09:31:13.232Z,44.89
2023-05-25T09:33:59.903Z,45.79
2023-05-25T09:36:45.143Z,46.84
2023-05-25T09:39:30.879Z,47.68
2023-05-25T09:42:17.210Z,48.20
2023-05-25T09:45:03.580Z,46.68
2023-05-25T09:47:54.054Z,46.22
2023-05-25T09:50:39.569Z,46.43
2023-05-25T09:53:25.008Z,46.76
2023-05-25T09:56:12.440Z,46.03
2023-05-25T09:58:58.335Z,45.01
2023-05-25T10:01:47.357Z,45.17
2023-05-25T10:04:32.811Z,45.54
2023-05-25T10:07:19.760Z,44.01
2023-05-25T10:10:09.943Z,43.29
2023-05-25T10:12:55.984Z,43.20
2023-05-25T10:15:44.759Z,43.57
2023-05-25T10:18:35.985Z,44.21
2023-05-25T10:21:22.705Z,43.02
2023-05-25T10:24:21.222Z,42.48
2023-05-25T10:27:25.691Z,42.04
2023-05-25T10:30:14.661Z,41.68
2023-05-25T10:33:02.306Z,41.14
2023-05-25T10:36:02.405Z,41.76
2023-05-25T10:38:55.635Z,41.78
2023-05-25T10:41:42.034Z,43.03
2023-05-25T10:44:28.284Z,42.81
2023-05-25T10:47:16.121Z,43.77
2023-05-25T10:50:03.046Z,43.45
2023-05-25T10:53:06.246Z,43.85
2023-05-25T10:55:51.854Z,42.55
2023-05-25T10:58:42.690Z,42.73
2023-05-25T11:01:33.515Z,42.66
2023-05-25T11:04:19.102Z,43.78
2023-05-25T11:07:08.383Z,43.71
2023-05-25T11:09:58.655Z,43.82
2023-05-25T11:12:46.469Z,43.63
2023-05-25T11:15:31.773Z,43.52
2023-05-25T11:18:17.171Z,44.58
2023-05-25T11:21:34.726Z,44.48
2023-05-25T11:24:20.605Z,44.49
2023-05-25T11:27:06.346Z,45.31
2023-05-25T11:29:52.800Z,44.57
2023-05-25T11:32:50.596Z,44.61
2023-05-25T11:35:37.240Z,43.91
2023-05-25T11:38:24.835Z,43.22
2023-05-25T11:41:23.662Z,42.59
2023-05-25T11:44:09.068Z,42.02
2023-05-25T11:46:57.600Z,41.50
2023-05-25T11:49:49.811Z,41.65
2023-05-25T11:52:35.044Z,41.74
2023-05-25T11:55:21.387Z,43.36
2023-05-25T11:58:06.634Z,42.87
2023-05-25T12:00:52.736Z,41.62
2023-05-25T12:03:38.152Z,42.97
2023-05-25T12:06:33.761Z,44.30
2023-05-25T12:09:22.373Z,44.13
2023-05-25T12:12:08.308Z,44.43
2023-05-25T12:14:53.817Z,45.08
2023-05-25T12:17:44.541Z,46.35
2023-05-25T12:20:30.578Z,47.25
2023-05-25T12:23:16.798Z,47.46
2023-05-25T12:26:16.212Z,48.57
2023-05-25T12:29:02.816Z,49.64
2023-05-25T12:31:48.093Z,50.58
2023-05-25T12:34:33.758Z,51.37
2023-05-25T12:37:21.144Z,51.81
2023-05-25T12:40:20.727Z,51.15
2023-05-25T12:43:06.231Z,50.25
2023-05-25T12:45:51.842Z,48.84
2023-05-25T12:48:37.062Z,47.68
2023-05-25T12:51:22.248Z,46.82
2023-05-25T12:54:07.337Z,47.02
2023-05-25T12:56:57.160Z,48.10
2023-05-25T12:59:44.352Z,48.66
2023-05-25T13:02:29.742Z,48.69
2023-05-25T13:05:26.384Z,47.65
2023-05-25T13:08:12.134Z,46.76
2023-05-25T13:10:57.331Z,46.41
2023-05-25T13:13:42.688Z,46.85
2023-05-25T13:16:29.447Z,47.39
2023-05-25T13:19:14.657Z,49.09
2023-05-25T13:22:00.016Z,47.03
2023-05-25T13:24:45.754Z,46.86
2023-05-25T13:27:31.435Z,47.17
2023-05-25T13:30:17.843Z,47.62
2023-05-25T13:33:03.477Z,46.81
2023-05-25T13:35:58.846Z,48.33
2023-05-25T13:38:45.121Z,49.83
2023-05-25T13:41:31.604Z,51.01
2023-05-25T13:44:17.748Z,50.15
2023-05-25T13:47:03.777Z,49.75
2023-05-25T13:49:49.402Z,48.11
2023-05-25T13:52:34.668Z,47.51
2023-05-25T13:55:19.788Z,47.11
2023-05-25T13:58:05.412Z,47.29
2023-05-25T14:00:51.585Z,47.25
2023-05-25T14:03:38.984Z,47.27
2023-05-25T14:06:25.077Z,46.96
2023-05-25T14:09:11.058Z,45.17
2023-05-25T14:11:57.187Z,45.77
2023-05-25T14:14:42.385Z,45.80
2023-05-25T14:17:27.856Z,45.44
2023-05-25T14:20:20.621Z,45.17
2023-05-25T14:23:06.219Z,45.25
2023-05-25T14:25:51.565Z,44.97
2023-05-25T14:28:36.745Z,45.04
2023-05-25T14:31:22.205Z,44.96
2023-05-25T14:34:07.408Z,45.27
2023-05-25T14:36:52.849Z,45.20
2023-05-25T14:39:38.424Z,45.34
2023-05-25T14:42:23.958Z,45.43
2023-05-25T14:45:11.647Z,45.10
2023-05-25T14:48:11.753Z,45.25
2023-05-25T14:51:02.730Z,45.44
2023-05-25T14:53:48.187Z,44.63
2023-05-25T14:56:34.091Z,45.33
2023-05-25T14:59:19.448Z,45.09
2023-05-25T15:02:05.718Z,45.81
2023-05-25T15:04:51.143Z,45.44
2023-05-25T15:07:36.245Z,45.23
2023-05-25T15:10:21.770Z,45.18
2023-05-25T15:13:06.844Z,45.05
2023-05-25T15:15:55.997Z,44.52
2023-05-25T15:18:41.103Z,44.85
2023-05-25T15:21:26.632Z,44.12
2023-05-25T15:24:16.544Z,43.89
2023-05-25T15:27:02.806Z,43.89
2023-05-25T15:29:48.220Z,44.14
2023-05-25T15:32:34.270Z,44.25
2023-05-25T15:35:19.555Z,44.81
2023-05-25T15:38:05.111Z,44.53
2023-05-25T15:40:50.329Z,44.47
2023-05-25T15:43:35.939Z,43.95
2023-05-25T15:46:21.967Z,44.33
2023-05-25T15:49:11.365Z,43.20
2023-05-25T15:51:56.917Z,43.22
2023-05-25T15:54:42.445Z,43.47
2023-05-25T15:57:27.890Z,44.41
2023-05-25T16:00:14.167Z,44.31
2023-05-25T16:02:59.521Z,44.35
2023-05-25T16:05:45.696Z,44.75
2023-05-25T16:08:30.958Z,44.60
2023-05-25T16:11:16.486Z,43.29
2023-05-25T16:14:01.822Z,43.44
2023-05-25T16:16:47.058Z,43.86
2023-05-25T16:19:32.959Z,43.74
2023-05-25T16:22:18.530Z,44.04
2023-05-25T16:25:03.716Z,44.26
2023-05-25T16:27:49.064Z,44.05
2023-05-25T16:30:34.520Z,44.81
2023-05-25T16:33:20.074Z,44.90
2023-05-25T16:36:05.704Z,45.61
2023-05-25T16:38:51.299Z,45.45
2023-05-25T16:41:36.372Z,45.14
2023-05-25T16:44:21.720Z,45.71
2023-05-25T16:47:07.077Z,45.59
2023-05-25T16:49:52.393Z,45.69
2023-05-25T16:52:37.595Z,45.43
2023-05-25T16:55:23.315Z,45.82
2023-05-25T16:58:08.624Z,46.15
2023-05-25T17:00:53.835Z,45.97
2023-05-25T17:03:40.651Z,46.49
2023-05-25T17:06:26.297Z,46.42
2023-05-25T17:09:11.969Z,46.63
2023-05-25T17:11:59.581Z,47.13
2023-05-25T17:14:44.892Z,47.86
2023-05-25T17:17:30.392Z,48.06
2023-05-25T17:20:17.092Z,48.02
2023-05-25T17:23:02.296Z,48.49
2023-05-25T17:25:47.694Z,48.82
2023-05-25T17:28:33.322Z,49.08
2023-05-25T17:31:18.537Z,49.73
2023-05-25T17:34:03.751Z,50.07
2023-05-25T17:36:49.027Z,49.58
2023-05-25T17:39:34.410Z,49.39
2023-05-25T17:42:19.774Z,49.69
2023-05-25T17:45:10.525Z,49.33
2023-05-25T17:47:56.351Z,49.58
2023-05-25T17:50:41.553Z,49.91
2023-05-25T17:53:27.143Z,49.97
2023-05-25T17:56:12.707Z,50.39
2023-05-25T17:58:58.275Z,49.92
2023-05-25T18:01:43.598Z,50.15
2023-05-25T18:04:29.253Z,50.31
2023-05-25T18:07:14.931Z,50.64
2023-05-25T18:10:00.774Z,50.35
2023-05-25T18:12:49.168Z,50.42
2023-05-25T18:15:34.840Z,50.47
2023-05-25T18:18:24.691Z,50.79
2023-05-25T18:21:10.442Z,51.01
2023-05-25T18:23:55.763Z,51.05
2023-05-25T18:26:42.312Z,50.83
2023-05-25T18:29:27.795Z,51.14
2023-05-25T18:32:12.997Z,51.43
2023-05-25T18:34:58.178Z,51.83
2023-05-25T18:37:43.371Z,52.04
2023-05-25T18:40:28.413Z,52.28
2023-05-25T18:43:13.867Z,52.01
2023-05-25T18:45:59.437Z,52.51
2023-05-25T18:48:44.575Z,52.86
2023-05-25T18:51:29.701Z,53.25
2023-05-25T18:54:15.294Z,53.09
2023-05-25T18:57:01.554Z,53.27
2023-05-25T18:59:46.957Z,53.69
2023-05-25T19:02:32.733Z,53.42
2023-05-25T19:05:19.863Z,53.54
2023-05-25T19:08:05.184Z,53.95
2023-05-25T19:10:50.836Z,54.11
2023-05-25T19:13:36.126Z,54.57
2023-05-25T19:16:21.310Z,54.94
2023-05-25T19:19:06.747Z,54.78
2023-05-25T19:21:53.161Z,55.17
2023-05-25T19:24:41.340Z,55.09
2023-05-25T19:27:28.400Z,55.48
2023-05-25T19:30:13.986Z,55.61
2023-05-25T19:32:59.335Z,55.83
2023-05-25T19:35:45.347Z,55.93
2023-05-25T19:38:37.701Z,56.34
2023-05-25T19:41:26.628Z,56.22
2023-05-25T19:44:11.909Z,56.38
2023-05-25T19:46:57.211Z,56.41
2023-05-25T19:49:42.762Z,56.85
2023-05-25T19:52:28.511Z,56.89
2023-05-25T19:55:14.076Z,56.83
2023-05-25T19:57:59.507Z,57.07
2023-05-25T20:00:44.924Z,57.15
2023-05-25T20:03:30.335Z,57.38
2023-05-25T20:06:15.980Z,57.71
2023-05-25T20:09:01.357Z,58.18
2023-05-25T20:11:46.977Z,58.39
2023-05-25T20:14:33.735Z,58.60
2023-05-25T20:17:19.543Z,58.73
2023-05-25T20:20:05.861Z,58.94
2023-05-25T20:22:51.109Z,59.11
2023-05-25T20:25:36.341Z,59.09
2023-05-25T20:28:22.096Z,58.62
2023-05-25T20:31:09.114Z,58.75
2023-05-25T20:33:54.950Z,58.51
2023-05-25T20:36:40.443Z,58.83
2023-05-25T20:39:26.071Z,58.92
2023-05-25T20:42:11.796Z,58.66
2023-05-25T20:44:57.200Z,58.61
2023-05-25T20:47:42.542Z,58.78
2023-05-25T20:50:31.475Z,58.40
2023-05-25T20:53:19.278Z,58.37
2023-05-25T20:56:05.038Z,57.78
2023-05-25T20:58:51.179Z,57.97
2023-05-25T21:01:36.667Z,57.80
2023-05-25T21:04:22.884Z,57.68
2023-05-25T21:07:08.502Z,57.63
2023-05-25T21:09:56.440Z,57.27
2023-05-25T21:12:44.898Z,57.46
2023-05-25T21:15:30.458Z,57.36
2023-05-25T21:18:16.468Z,57.25
2023-05-25T21:21:02.276Z,57.54
2023-05-25T21:23:47.557Z,57.77
2023-05-25T21:26:32.814Z,57.68
2023-05-25T21:29:17.930Z,57.64
2023-05-25T21:32:03.386Z,57.49
2023-05-25T21:34:48.690Z,57.43
2023-05-25T21:37:34.737Z,57.70
2023-05-25T21:40:19.828Z,57.52
2023-05-25T21:43:05.301Z,57.19
2023-05-25T21:45:51.172Z,57.37
2023-05-25T21:48:36.794Z,57.32
2023-05-25T21:51:21.827Z,56.95
2023-05-25T21:54:07.235Z,56.48
2023-05-25T21:56:52.442Z,56.83
2023-05-25T21:59:37.770Z,56.86
